sensor_id;sensor_type;location;lat;lon;timestamp;temperature;humidity
68867;SHT30;56451;44.804;20.476;2022-12-24T00:00:06;12.84;60.71
68867;SHT30;56451;44.804;20.476;2022-12-24T00:02:33;12.85;60.79
68867;SHT30;56451;44.804;20.476;2022-12-24T00:04:59;12.89;60.72
68867;SHT30;56451;44.804;20.476;2022-12-24T00:07:24;12.91;60.69
68867;SHT30;56451;44.804;20.476;2022-12-24T00:09:51;12.97;60.62
68867;SHT30;56451;44.804;20.476;2022-12-24T00:12:16;12.98;60.49
68867;SHT30;56451;44.804;20.476;2022-12-24T00:14:42;13.04;60.53
68867;SHT30;56451;44.804;20.476;2022-12-24T00:17:08;13.09;60.46
68867;SHT30;56451;44.804;20.476;2022-12-24T00:19:34;13.14;60.14
68867;SHT30;56451;44.804;20.476;2022-12-24T00:22:00;13.18;60.13
68867;SHT30;56451;44.804;20.476;2022-12-24T00:24:25;13.19;60.12
68867;SHT30;56451;44.804;20.476;2022-12-24T00:26:51;13.18;60.10
68867;SHT30;56451;44.804;20.476;2022-12-24T00:29:17;13.15;60.18
68867;SHT30;56451;44.804;20.476;2022-12-24T00:31:43;13.19;60.11
68867;SHT30;56451;44.804;20.476;2022-12-24T00:34:09;13.20;60.11
68867;SHT30;56451;44.804;20.476;2022-12-24T00:36:35;13.20;60.14
68867;SHT30;56451;44.804;20.476;2022-12-24T00:39:00;13.20;59.86
68867;SHT30;56451;44.804;20.476;2022-12-24T00:41:26;13.22;59.71
68867;SHT30;56451;44.804;20.476;2022-12-24T00:43:57;13.20;59.34
68867;SHT30;56451;44.804;20.476;2022-12-24T00:46:24;13.19;59.30
68867;SHT30;56451;44.804;20.476;2022-12-24T00:48:51;13.18;58.99
68867;SHT30;56451;44.804;20.476;2022-12-24T00:51:17;13.18;58.90
68867;SHT30;56451;44.804;20.476;2022-12-24T00:53:43;13.19;59.04
68867;SHT30;56451;44.804;20.476;2022-12-24T00:56:09;13.25;59.01
68867;SHT30;56451;44.804;20.476;2022-12-24T00:58:35;13.22;59.18
68867;SHT30;56451;44.804;20.476;2022-12-24T01:01:02;13.18;59.20
68867;SHT30;56451;44.804;20.476;2022-12-24T01:03:27;13.11;59.26
68867;SHT30;56451;44.804;20.476;2022-12-24T01:06:06;13.15;58.92
68867;SHT30;56451;44.804;20.476;2022-12-24T01:08:33;13.12;58.55
68867;SHT30;56451;44.804;20.476;2022-12-24T01:10:59;13.14;58.32
68867;SHT30;56451;44.804;20.476;2022-12-24T01:13:25;13.15;58.12
68867;SHT30;56451;44.804;20.476;2022-12-24T01:15:52;13.19;57.77
68867;SHT30;56451;44.804;20.476;2022-12-24T01:18:18;13.25;57.42
68867;SHT30;56451;44.804;20.476;2022-12-24T01:20:44;13.23;57.48
68867;SHT30;56451;44.804;20.476;2022-12-24T01:23:10;13.25;57.30
68867;SHT30;56451;44.804;20.476;2022-12-24T01:25:39;13.27;56.83
68867;SHT30;56451;44.804;20.476;2022-12-24T01:28:05;13.30;56.77
68867;SHT30;56451;44.804;20.476;2022-12-24T01:30:31;13.36;56.21
68867;SHT30;56451;44.804;20.476;2022-12-24T01:32:57;13.36;56.07
68867;SHT30;56451;44.804;20.476;2022-12-24T01:35:23;13.40;56.00
68867;SHT30;56451;44.804;20.476;2022-12-24T01:37:49;13.46;56.00
68867;SHT30;56451;44.804;20.476;2022-12-24T01:40:16;13.45;55.77
68867;SHT30;56451;44.804;20.476;2022-12-24T01:43:01;13.50;55.47
68867;SHT30;56451;44.804;20.476;2022-12-24T01:45:48;13.53;55.35
68867;SHT30;56451;44.804;20.476;2022-12-24T01:50:47;13.59;55.23
68867;SHT30;56451;44.804;20.476;2022-12-24T01:53:15;13.62;55.11
68867;SHT30;56451;44.804;20.476;2022-12-24T01:55:41;13.59;55.27
68867;SHT30;56451;44.804;20.476;2022-12-24T01:58:09;13.60;55.28
68867;SHT30;56451;44.804;20.476;2022-12-24T02:00:35;13.66;55.13
68867;SHT30;56451;44.804;20.476;2022-12-24T02:03:01;13.69;54.93
68867;SHT30;56451;44.804;20.476;2022-12-24T02:05:31;13.69;54.91
68867;SHT30;56451;44.804;20.476;2022-12-24T02:08:02;13.70;54.17
68867;SHT30;56451;44.804;20.476;2022-12-24T02:10:28;13.77;54.05
68867;SHT30;56451;44.804;20.476;2022-12-24T02:12:54;13.76;53.88
68867;SHT30;56451;44.804;20.476;2022-12-24T02:15:21;13.78;53.86
68867;SHT30;56451;44.804;20.476;2022-12-24T02:18:04;13.83;53.94
68867;SHT30;56451;44.804;20.476;2022-12-24T02:20:49;13.83;53.82
68867;SHT30;56451;44.804;20.476;2022-12-24T02:28:59;13.90;53.82
68867;SHT30;56451;44.804;20.476;2022-12-24T02:34:10;13.95;53.81
68867;SHT30;56451;44.804;20.476;2022-12-24T02:36:45;13.93;54.20
68867;SHT30;56451;44.804;20.476;2022-12-24T02:39:36;13.91;54.50
68867;SHT30;56451;44.804;20.476;2022-12-24T02:41:58;13.88;54.90
68867;SHT30;56451;44.804;20.476;2022-12-24T02:44:40;13.85;55.23
68867;SHT30;56451;44.804;20.476;2022-12-24T02:47:09;13.85;55.60
68867;SHT30;56451;44.804;20.476;2022-12-24T02:49:36;13.81;55.70
68867;SHT30;56451;44.804;20.476;2022-12-24T02:52:02;13.84;55.94
68867;SHT30;56451;44.804;20.476;2022-12-24T02:54:28;13.83;55.84
68867;SHT30;56451;44.804;20.476;2022-12-24T02:57:17;13.83;56.00
68867;SHT30;56451;44.804;20.476;2022-12-24T03:00:05;13.84;56.25
68867;SHT30;56451;44.804;20.476;2022-12-24T03:10:55;13.73;57.19
68867;SHT30;56451;44.804;20.476;2022-12-24T03:13:23;13.73;57.13
68867;SHT30;56451;44.804;20.476;2022-12-24T03:15:50;13.74;56.93
68867;SHT30;56451;44.804;20.476;2022-12-24T03:18:22;13.73;57.45
68867;SHT30;56451;44.804;20.476;2022-12-24T03:20:59;13.71;57.79
68867;SHT30;56451;44.804;20.476;2022-12-24T03:23:26;13.71;57.93
68867;SHT30;56451;44.804;20.476;2022-12-24T03:25:52;13.70;57.73
68867;SHT30;56451;44.804;20.476;2022-12-24T03:28:19;13.63;57.89
68867;SHT30;56451;44.804;20.476;2022-12-24T03:30:49;13.62;58.27
68867;SHT30;56451;44.804;20.476;2022-12-24T03:33:15;13.63;58.51
68867;SHT30;56451;44.804;20.476;2022-12-24T03:35:41;13.64;58.83
68867;SHT30;56451;44.804;20.476;2022-12-24T03:38:07;13.62;58.89
68867;SHT30;56451;44.804;20.476;2022-12-24T03:40:33;13.62;58.79
68867;SHT30;56451;44.804;20.476;2022-12-24T03:42:59;13.63;58.80
68867;SHT30;56451;44.804;20.476;2022-12-24T03:45:25;13.59;58.54
68867;SHT30;56451;44.804;20.476;2022-12-24T03:47:51;13.56;58.48
68867;SHT30;56451;44.804;20.476;2022-12-24T03:50:17;13.57;58.21
68867;SHT30;56451;44.804;20.476;2022-12-24T03:52:43;13.59;58.16
68867;SHT30;56451;44.804;20.476;2022-12-24T03:55:09;13.63;58.38
68867;SHT30;56451;44.804;20.476;2022-12-24T03:57:35;13.62;58.59
68867;SHT30;56451;44.804;20.476;2022-12-24T04:00:03;13.64;58.68
68867;SHT30;56451;44.804;20.476;2022-12-24T04:02:37;13.62;58.76
68867;SHT30;56451;44.804;20.476;2022-12-24T04:05:04;13.62;58.72
68867;SHT30;56451;44.804;20.476;2022-12-24T04:07:31;13.55;58.82
68867;SHT30;56451;44.804;20.476;2022-12-24T04:09:57;13.63;58.70
68867;SHT30;56451;44.804;20.476;2022-12-24T04:12:23;13.64;58.47
68867;SHT30;56451;44.804;20.476;2022-12-24T04:14:49;13.66;58.41
68867;SHT30;56451;44.804;20.476;2022-12-24T04:17:15;13.66;57.97
68867;SHT30;56451;44.804;20.476;2022-12-24T04:19:41;13.69;57.73
68867;SHT30;56451;44.804;20.476;2022-12-24T04:22:07;13.70;57.79
68867;SHT30;56451;44.804;20.476;2022-12-24T04:24:33;13.73;57.82
68867;SHT30;56451;44.804;20.476;2022-12-24T04:26:59;13.73;57.94
68867;SHT30;56451;44.804;20.476;2022-12-24T04:29:25;13.76;57.96
68867;SHT30;56451;44.804;20.476;2022-12-24T04:31:51;13.78;58.11
68867;SHT30;56451;44.804;20.476;2022-12-24T04:34:16;13.78;58.15
68867;SHT30;56451;44.804;20.476;2022-12-24T04:36:42;13.76;58.37
68867;SHT30;56451;44.804;20.476;2022-12-24T04:39:08;13.74;58.82
68867;SHT30;56451;44.804;20.476;2022-12-24T04:41:34;13.81;59.04
68867;SHT30;56451;44.804;20.476;2022-12-24T04:44:00;13.83;59.09
68867;SHT30;56451;44.804;20.476;2022-12-24T04:46:28;13.77;59.51
68867;SHT30;56451;44.804;20.476;2022-12-24T04:48:57;13.77;59.61
68867;SHT30;56451;44.804;20.476;2022-12-24T04:51:24;13.81;59.62
68867;SHT30;56451;44.804;20.476;2022-12-24T04:53:51;13.74;60.12
68867;SHT30;56451;44.804;20.476;2022-12-24T04:56:22;13.70;60.45
68867;SHT30;56451;44.804;20.476;2022-12-24T04:58:49;13.64;60.35
68867;SHT30;56451;44.804;20.476;2022-12-24T05:01:19;13.62;60.34
68867;SHT30;56451;44.804;20.476;2022-12-24T05:03:45;13.62;60.48
68867;SHT30;56451;44.804;20.476;2022-12-24T05:06:14;13.63;60.20
68867;SHT30;56451;44.804;20.476;2022-12-24T05:08:40;13.63;60.22
68867;SHT30;56451;44.804;20.476;2022-12-24T05:11:06;13.60;60.62
68867;SHT30;56451;44.804;20.476;2022-12-24T05:13:33;13.64;60.45
68867;SHT30;56451;44.804;20.476;2022-12-24T05:15:59;13.71;60.32
68867;SHT30;56451;44.804;20.476;2022-12-24T05:18:25;13.74;60.24
68867;SHT30;56451;44.804;20.476;2022-12-24T05:20:51;13.76;60.08
68867;SHT30;56451;44.804;20.476;2022-12-24T05:23:19;13.78;59.92
68867;SHT30;56451;44.804;20.476;2022-12-24T05:26:22;13.83;60.11
68867;SHT30;56451;44.804;20.476;2022-12-24T05:28:53;13.88;60.00
68867;SHT30;56451;44.804;20.476;2022-12-24T05:31:21;13.94;59.94
68867;SHT30;56451;44.804;20.476;2022-12-24T05:33:48;13.95;59.76
68867;SHT30;56451;44.804;20.476;2022-12-24T05:36:14;13.97;59.71
68867;SHT30;56451;44.804;20.476;2022-12-24T05:38:40;13.98;59.59
68867;SHT30;56451;44.804;20.476;2022-12-24T05:41:07;13.97;59.54
68867;SHT30;56451;44.804;20.476;2022-12-24T05:43:35;14.00;59.69
68867;SHT30;56451;44.804;20.476;2022-12-24T05:46:02;13.98;59.57
68867;SHT30;56451;44.804;20.476;2022-12-24T05:48:29;14.01;59.46
68867;SHT30;56451;44.804;20.476;2022-12-24T05:50:55;14.03;59.34
68867;SHT30;56451;44.804;20.476;2022-12-24T05:53:21;14.03;59.32
68867;SHT30;56451;44.804;20.476;2022-12-24T05:55:47;14.07;59.20
68867;SHT30;56451;44.804;20.476;2022-12-24T05:58:13;14.11;58.92
68867;SHT30;56451;44.804;20.476;2022-12-24T06:00:39;14.17;58.70
68867;SHT30;56451;44.804;20.476;2022-12-24T06:03:05;14.22;58.51
68867;SHT30;56451;44.804;20.476;2022-12-24T06:05:30;14.24;58.42
68867;SHT30;56451;44.804;20.476;2022-12-24T06:07:56;14.26;58.37
68867;SHT30;56451;44.804;20.476;2022-12-24T06:10:23;14.28;58.12
68867;SHT30;56451;44.804;20.476;2022-12-24T06:12:49;14.31;57.62
68867;SHT30;56451;44.804;20.476;2022-12-24T06:15:15;14.31;57.59
68867;SHT30;56451;44.804;20.476;2022-12-24T06:17:41;14.36;57.68
68867;SHT30;56451;44.804;20.476;2022-12-24T06:20:07;14.36;57.68
68867;SHT30;56451;44.804;20.476;2022-12-24T06:22:33;14.38;57.91
68867;SHT30;56451;44.804;20.476;2022-12-24T06:24:59;14.36;57.75
68867;SHT30;56451;44.804;20.476;2022-12-24T06:27:25;14.35;57.72
68867;SHT30;56451;44.804;20.476;2022-12-24T06:29:50;14.31;57.83
68867;SHT30;56451;44.804;20.476;2022-12-24T06:32:16;14.29;58.28
68867;SHT30;56451;44.804;20.476;2022-12-24T06:34:42;14.29;58.47
68867;SHT30;56451;44.804;20.476;2022-12-24T06:37:08;14.33;58.36
68867;SHT30;56451;44.804;20.476;2022-12-24T06:39:46;14.33;58.76
68867;SHT30;56451;44.804;20.476;2022-12-24T06:42:12;14.36;58.64
68867;SHT30;56451;44.804;20.476;2022-12-24T06:44:39;14.38;58.92
68867;SHT30;56451;44.804;20.476;2022-12-24T06:47:05;14.38;59.40
68867;SHT30;56451;44.804;20.476;2022-12-24T06:49:31;14.33;59.80
68867;SHT30;56451;44.804;20.476;2022-12-24T06:51:57;14.28;60.38
68867;SHT30;56451;44.804;20.476;2022-12-24T06:54:23;14.07;61.37
68867;SHT30;56451;44.804;20.476;2022-12-24T06:56:49;13.94;61.68
68867;SHT30;56451;44.804;20.476;2022-12-24T06:59:14;13.76;61.89
68867;SHT30;56451;44.804;20.476;2022-12-24T07:01:40;13.64;62.84
68867;SHT30;56451;44.804;20.476;2022-12-24T07:04:06;13.59;63.65
68867;SHT30;56451;44.804;20.476;2022-12-24T07:06:32;13.57;64.06
68867;SHT30;56451;44.804;20.476;2022-12-24T07:08:57;13.57;63.35
68867;SHT30;56451;44.804;20.476;2022-12-24T07:11:24;13.62;62.45
68867;SHT30;56451;44.804;20.476;2022-12-24T07:13:50;13.66;62.10
68867;SHT30;56451;44.804;20.476;2022-12-24T07:16:17;13.62;62.22
68867;SHT30;56451;44.804;20.476;2022-12-24T07:18:43;13.55;62.52
68867;SHT30;56451;44.804;20.476;2022-12-24T07:21:09;13.50;62.72
68867;SHT30;56451;44.804;20.476;2022-12-24T07:23:35;13.45;63.18
68867;SHT30;56451;44.804;20.476;2022-12-24T07:26:03;13.43;63.51
68867;SHT30;56451;44.804;20.476;2022-12-24T07:28:30;13.36;63.96
68867;SHT30;56451;44.804;20.476;2022-12-24T07:30:56;13.27;64.08
68867;SHT30;56451;44.804;20.476;2022-12-24T07:33:23;13.29;64.17
68867;SHT30;56451;44.804;20.476;2022-12-24T07:35:57;13.26;64.80
68867;SHT30;56451;44.804;20.476;2022-12-24T07:38:23;13.26;65.17
68867;SHT30;56451;44.804;20.476;2022-12-24T07:40:49;13.26;65.48
68867;SHT30;56451;44.804;20.476;2022-12-24T07:43:15;13.27;65.35
68867;SHT30;56451;44.804;20.476;2022-12-24T07:45:40;13.29;65.47
68867;SHT30;56451;44.804;20.476;2022-12-24T07:48:07;13.30;65.76
68867;SHT30;56451;44.804;20.476;2022-12-24T07:50:33;13.34;65.96
68867;SHT30;56451;44.804;20.476;2022-12-24T07:52:59;13.36;66.33
68867;SHT30;56451;44.804;20.476;2022-12-24T07:55:25;13.36;66.26
68867;SHT30;56451;44.804;20.476;2022-12-24T07:57:50;13.40;65.84
68867;SHT30;56451;44.804;20.476;2022-12-24T08:00:16;13.42;66.13
68867;SHT30;56451;44.804;20.476;2022-12-24T08:02:42;13.45;65.84
68867;SHT30;56451;44.804;20.476;2022-12-24T08:05:08;13.55;65.43
68867;SHT30;56451;44.804;20.476;2022-12-24T08:07:34;13.56;65.64
68867;SHT30;56451;44.804;20.476;2022-12-24T08:10:00;13.60;65.42
68867;SHT30;56451;44.804;20.476;2022-12-24T08:12:26;13.64;65.52
68867;SHT30;56451;44.804;20.476;2022-12-24T08:14:52;13.69;65.27
68867;SHT30;56451;44.804;20.476;2022-12-24T08:17:18;13.73;64.91
68867;SHT30;56451;44.804;20.476;2022-12-24T08:19:43;13.77;64.62
68867;SHT30;56451;44.804;20.476;2022-12-24T08:22:09;13.83;64.64
68867;SHT30;56451;44.804;20.476;2022-12-24T08:24:35;13.84;64.39
68867;SHT30;56451;44.804;20.476;2022-12-24T08:27:02;13.90;64.08
68867;SHT30;56451;44.804;20.476;2022-12-24T08:29:28;13.93;64.01
68867;SHT30;56451;44.804;20.476;2022-12-24T08:31:54;13.97;63.84
68867;SHT30;56451;44.804;20.476;2022-12-24T08:34:20;13.98;63.38
68867;SHT30;56451;44.804;20.476;2022-12-24T08:36:45;14.01;63.37
68867;SHT30;56451;44.804;20.476;2022-12-24T08:39:11;14.03;63.28
68867;SHT30;56451;44.804;20.476;2022-12-24T08:41:38;14.07;62.91
68867;SHT30;56451;44.804;20.476;2022-12-24T08:44:04;14.05;63.04
68867;SHT30;56451;44.804;20.476;2022-12-24T08:46:30;14.07;63.12
68867;SHT30;56451;44.804;20.476;2022-12-24T08:48:56;14.07;62.96
68867;SHT30;56451;44.804;20.476;2022-12-24T08:51:22;14.12;63.15
68867;SHT30;56451;44.804;20.476;2022-12-24T08:53:48;14.17;62.89
68867;SHT30;56451;44.804;20.476;2022-12-24T08:56:14;14.22;62.63
68867;SHT30;56451;44.804;20.476;2022-12-24T08:58:40;14.31;62.25
68867;SHT30;56451;44.804;20.476;2022-12-24T09:01:15;14.36;62.14
68867;SHT30;56451;44.804;20.476;2022-12-24T09:03:41;14.42;62.07
68867;SHT30;56451;44.804;20.476;2022-12-24T09:06:08;14.46;61.52
68867;SHT30;56451;44.804;20.476;2022-12-24T09:08:34;14.43;61.78
68867;SHT30;56451;44.804;20.476;2022-12-24T09:11:09;14.51;61.88
68867;SHT30;56451;44.804;20.476;2022-12-24T09:13:35;14.53;61.92
68867;SHT30;56451;44.804;20.476;2022-12-24T09:16:02;14.59;61.55
68867;SHT30;56451;44.804;20.476;2022-12-24T09:18:29;14.63;61.52
68867;SHT30;56451;44.804;20.476;2022-12-24T09:21:01;14.65;61.53
68867;SHT30;56451;44.804;20.476;2022-12-24T09:23:28;14.63;61.55
68867;SHT30;56451;44.804;20.476;2022-12-24T09:25:55;14.70;61.49
68867;SHT30;56451;44.804;20.476;2022-12-24T09:28:21;14.70;61.51
68867;SHT30;56451;44.804;20.476;2022-12-24T09:31:06;14.72;61.51
68867;SHT30;56451;44.804;20.476;2022-12-24T09:33:34;14.70;61.59
68867;SHT30;56451;44.804;20.476;2022-12-24T09:36:01;14.70;61.68
68867;SHT30;56451;44.804;20.476;2022-12-24T09:38:27;14.73;61.67
68867;SHT30;56451;44.804;20.476;2022-12-24T09:40:54;14.76;61.89
68867;SHT30;56451;44.804;20.476;2022-12-24T09:43:22;14.83;62.02
68867;SHT30;56451;44.804;20.476;2022-12-24T09:48:20;14.84;62.07
68867;SHT30;56451;44.804;20.476;2022-12-24T09:51:01;14.91;61.85
68867;SHT30;56451;44.804;20.476;2022-12-24T09:53:54;14.91;61.94
68867;SHT30;56451;44.804;20.476;2022-12-24T09:56:29;14.91;62.20
68867;SHT30;56451;44.804;20.476;2022-12-24T09:58:59;14.96;61.93
68867;SHT30;56451;44.804;20.476;2022-12-24T10:01:28;14.99;61.74
68867;SHT30;56451;44.804;20.476;2022-12-24T10:04:04;15.00;61.97
68867;SHT30;56451;44.804;20.476;2022-12-24T10:13:03;15.06;61.85
68867;SHT30;56451;44.804;20.476;2022-12-24T10:15:38;15.07;61.83
68867;SHT30;56451;44.804;20.476;2022-12-24T10:21:27;15.11;61.16
68867;SHT30;56451;44.804;20.476;2022-12-24T10:29:31;15.14;61.35
68867;SHT30;56451;44.804;20.476;2022-12-24T10:34:42;15.16;61.44
68867;SHT30;56451;44.804;20.476;2022-12-24T10:37:19;15.17;61.43
68867;SHT30;56451;44.804;20.476;2022-12-24T10:39:47;15.17;61.37
68867;SHT30;56451;44.804;20.476;2022-12-24T10:42:14;15.12;61.41
68867;SHT30;56451;44.804;20.476;2022-12-24T10:44:40;15.03;61.97
68867;SHT30;56451;44.804;20.476;2022-12-24T10:47:08;15.00;62.13
68867;SHT30;56451;44.804;20.476;2022-12-24T10:49:42;14.99;62.22
68867;SHT30;56451;44.804;20.476;2022-12-24T10:52:14;14.97;62.37
68867;SHT30;56451;44.804;20.476;2022-12-24T10:57:29;14.89;62.80
68867;SHT30;56451;44.804;20.476;2022-12-24T10:59:55;14.87;62.93
68867;SHT30;56451;44.804;20.476;2022-12-24T11:02:32;14.80;63.33
68867;SHT30;56451;44.804;20.476;2022-12-24T11:05:00;14.80;63.16
68867;SHT30;56451;44.804;20.476;2022-12-24T11:07:27;14.82;63.15
68867;SHT30;56451;44.804;20.476;2022-12-24T11:10:05;14.82;63.12
68867;SHT30;56451;44.804;20.476;2022-12-24T11:12:39;14.80;63.12
68867;SHT30;56451;44.804;20.476;2022-12-24T11:15:21;14.82;63.24
68867;SHT30;56451;44.804;20.476;2022-12-24T11:17:57;14.79;63.43
68867;SHT30;56451;44.804;20.476;2022-12-24T11:20:27;14.79;63.52
68867;SHT30;56451;44.804;20.476;2022-12-24T11:22:54;14.82;63.57
68867;SHT30;56451;44.804;20.476;2022-12-24T11:25:29;14.82;63.49
68867;SHT30;56451;44.804;20.476;2022-12-24T11:28:12;14.77;63.88
68867;SHT30;56451;44.804;20.476;2022-12-24T11:33:27;14.77;64.04
68867;SHT30;56451;44.804;20.476;2022-12-24T11:35:56;14.73;64.43
68867;SHT30;56451;44.804;20.476;2022-12-24T11:38:25;14.75;64.14
68867;SHT30;56451;44.804;20.476;2022-12-24T11:41:03;14.75;64.01
68867;SHT30;56451;44.804;20.476;2022-12-24T11:43:41;14.73;64.53
68867;SHT30;56451;44.804;20.476;2022-12-24T11:46:13;14.70;64.67
68867;SHT30;56451;44.804;20.476;2022-12-24T11:48:39;14.72;64.58
68867;SHT30;56451;44.804;20.476;2022-12-24T11:51:16;14.73;64.61
68867;SHT30;56451;44.804;20.476;2022-12-24T11:53:49;14.68;64.76
68867;SHT30;56451;44.804;20.476;2022-12-24T11:56:50;14.66;64.93
68867;SHT30;56451;44.804;20.476;2022-12-24T11:59:18;14.65;65.21
68867;SHT30;56451;44.804;20.476;2022-12-24T12:04:25;14.70;65.07
68867;SHT30;56451;44.804;20.476;2022-12-24T12:18:19;14.56;65.23
68867;SHT30;56451;44.804;20.476;2022-12-24T12:20:50;14.53;65.61
68867;SHT30;56451;44.804;20.476;2022-12-24T12:23:28;14.49;65.40
68867;SHT30;56451;44.804;20.476;2022-12-24T12:26:01;14.49;65.30
68867;SHT30;56451;44.804;20.476;2022-12-24T12:31:46;14.53;65.53
68867;SHT30;56451;44.804;20.476;2022-12-24T12:34:27;14.52;65.58
68867;SHT30;56451;44.804;20.476;2022-12-24T12:37:01;14.51;65.45
68867;SHT30;56451;44.804;20.476;2022-12-24T12:39:30;14.45;65.81
68867;SHT30;56451;44.804;20.476;2022-12-24T12:50:13;14.33;66.09
68867;SHT30;56451;44.804;20.476;2022-12-24T12:58:16;14.35;66.13
68867;SHT30;56451;44.804;20.476;2022-12-24T13:00:45;14.39;65.99
68867;SHT30;56451;44.804;20.476;2022-12-24T13:03:47;14.38;66.19
68867;SHT30;56451;44.804;20.476;2022-12-24T13:22:34;14.32;66.27
68867;SHT30;56451;44.804;20.476;2022-12-24T13:25:01;14.31;66.29
68867;SHT30;56451;44.804;20.476;2022-12-24T13:27:28;14.28;66.66
68867;SHT30;56451;44.804;20.476;2022-12-24T13:29:59;14.25;66.70
68867;SHT30;56451;44.804;20.476;2022-12-24T13:35:01;14.28;66.77
68867;SHT30;56451;44.804;20.476;2022-12-24T13:37:34;14.28;66.84
68867;SHT30;56451;44.804;20.476;2022-12-24T13:43:06;14.28;67.16
68867;SHT30;56451;44.804;20.476;2022-12-24T13:53:04;14.29;67.48
68867;SHT30;56451;44.804;20.476;2022-12-24T13:55:31;14.31;67.51
68867;SHT30;56451;44.804;20.476;2022-12-24T13:58:02;14.31;67.51
68867;SHT30;56451;44.804;20.476;2022-12-24T14:01:13;14.32;67.24
68867;SHT30;56451;44.804;20.476;2022-12-24T14:03:46;14.33;67.28
68867;SHT30;56451;44.804;20.476;2022-12-24T14:08:47;14.26;67.30
68867;SHT30;56451;44.804;20.476;2022-12-24T14:11:15;14.25;67.36
68867;SHT30;56451;44.804;20.476;2022-12-24T14:16:18;14.20;67.71
68867;SHT30;56451;44.804;20.476;2022-12-24T14:18:48;14.20;67.75
68867;SHT30;56451;44.804;20.476;2022-12-24T14:21:20;14.17;67.72
68867;SHT30;56451;44.804;20.476;2022-12-24T14:24:00;14.18;67.66
68867;SHT30;56451;44.804;20.476;2022-12-24T14:26:31;14.18;67.78
68867;SHT30;56451;44.804;20.476;2022-12-24T14:29:02;14.15;68.11
68867;SHT30;56451;44.804;20.476;2022-12-24T14:31:30;14.15;68.36
68867;SHT30;56451;44.804;20.476;2022-12-24T14:34:12;14.12;68.42
68867;SHT30;56451;44.804;20.476;2022-12-24T14:36:39;14.11;68.74
68867;SHT30;56451;44.804;20.476;2022-12-24T14:39:08;14.14;68.70
68867;SHT30;56451;44.804;20.476;2022-12-24T14:41:46;14.10;68.70
68867;SHT30;56451;44.804;20.476;2022-12-24T14:44:22;14.08;68.73
68867;SHT30;56451;44.804;20.476;2022-12-24T14:46:56;14.03;68.97
68867;SHT30;56451;44.804;20.476;2022-12-24T14:54:40;13.91;69.67
68867;SHT30;56451;44.804;20.476;2022-12-24T15:02:36;13.88;69.99
68867;SHT30;56451;44.804;20.476;2022-12-24T15:05:04;13.85;70.07
68867;SHT30;56451;44.804;20.476;2022-12-24T15:07:32;13.88;70.29
68867;SHT30;56451;44.804;20.476;2022-12-24T15:09:58;13.85;70.43
68867;SHT30;56451;44.804;20.476;2022-12-24T15:12:24;13.84;70.43
68867;SHT30;56451;44.804;20.476;2022-12-24T15:14:50;13.87;70.41
68867;SHT30;56451;44.804;20.476;2022-12-24T15:17:17;13.88;70.48
68867;SHT30;56451;44.804;20.476;2022-12-24T15:19:46;13.85;70.70
68867;SHT30;56451;44.804;20.476;2022-12-24T15:22:27;13.87;70.74
68867;SHT30;56451;44.804;20.476;2022-12-24T15:24:54;13.88;70.81
68867;SHT30;56451;44.804;20.476;2022-12-24T15:27:25;13.88;70.97
68867;SHT30;56451;44.804;20.476;2022-12-24T15:29:53;13.88;71.03
68867;SHT30;56451;44.804;20.476;2022-12-24T15:32:20;13.88;71.08
68867;SHT30;56451;44.804;20.476;2022-12-24T15:34:55;13.85;71.32
68867;SHT30;56451;44.804;20.476;2022-12-24T15:40:20;13.88;71.50
68867;SHT30;56451;44.804;20.476;2022-12-24T15:42:47;13.87;71.40
68867;SHT30;56451;44.804;20.476;2022-12-24T15:45:16;13.83;71.68
68867;SHT30;56451;44.804;20.476;2022-12-24T15:47:48;13.88;71.53
68867;SHT30;56451;44.804;20.476;2022-12-24T15:50:32;13.87;71.53
68867;SHT30;56451;44.804;20.476;2022-12-24T15:53:03;13.83;71.64
68867;SHT30;56451;44.804;20.476;2022-12-24T15:55:37;13.78;71.76
68867;SHT30;56451;44.804;20.476;2022-12-24T15:58:16;13.71;72.29
68867;SHT30;56451;44.804;20.476;2022-12-24T16:00:43;13.66;72.56
68867;SHT30;56451;44.804;20.476;2022-12-24T16:03:19;13.57;72.79
68867;SHT30;56451;44.804;20.476;2022-12-24T16:06:01;13.55;72.98
68867;SHT30;56451;44.804;20.476;2022-12-24T16:08:29;13.49;73.23
68867;SHT30;56451;44.804;20.476;2022-12-24T16:13:29;13.45;73.25
68867;SHT30;56451;44.804;20.476;2022-12-24T16:16:19;13.50;73.41
68867;SHT30;56451;44.804;20.476;2022-12-24T16:18:54;13.43;73.51
68867;SHT30;56451;44.804;20.476;2022-12-24T16:21:36;13.43;73.48
68867;SHT30;56451;44.804;20.476;2022-12-24T16:24:12;13.32;74.11
68867;SHT30;56451;44.804;20.476;2022-12-24T16:26:39;13.26;74.38
68867;SHT30;56451;44.804;20.476;2022-12-24T16:29:06;13.27;74.31
68867;SHT30;56451;44.804;20.476;2022-12-24T16:31:36;13.26;74.43
68867;SHT30;56451;44.804;20.476;2022-12-24T16:34:02;13.27;74.41
68867;SHT30;56451;44.804;20.476;2022-12-24T16:36:30;13.26;74.65
68867;SHT30;56451;44.804;20.476;2022-12-24T16:38:57;13.20;74.90
68867;SHT30;56451;44.804;20.476;2022-12-24T16:41:43;13.22;74.91
68867;SHT30;56451;44.804;20.476;2022-12-24T16:44:28;13.23;75.08
68867;SHT30;56451;44.804;20.476;2022-12-24T16:46:58;13.23;75.25
68867;SHT30;56451;44.804;20.476;2022-12-24T16:49:26;13.25;75.11
68867;SHT30;56451;44.804;20.476;2022-12-24T16:51:52;13.25;75.01
68867;SHT30;56451;44.804;20.476;2022-12-24T16:54:19;13.26;75.24
68867;SHT30;56451;44.804;20.476;2022-12-24T16:56:45;13.25;75.28
68867;SHT30;56451;44.804;20.476;2022-12-24T16:59:19;13.22;75.41
68867;SHT30;56451;44.804;20.476;2022-12-24T17:01:46;13.19;75.38
68867;SHT30;56451;44.804;20.476;2022-12-24T17:04:13;13.16;75.59
68867;SHT30;56451;44.804;20.476;2022-12-24T17:06:40;13.15;75.75
68867;SHT30;56451;44.804;20.476;2022-12-24T17:09:07;13.16;75.53
68867;SHT30;56451;44.804;20.476;2022-12-24T17:11:34;13.15;75.60
68867;SHT30;56451;44.804;20.476;2022-12-24T17:14:00;13.12;75.67
68867;SHT30;56451;44.804;20.476;2022-12-24T17:16:26;13.11;75.72
68867;SHT30;56451;44.804;20.476;2022-12-24T17:18:52;13.16;75.69
68867;SHT30;56451;44.804;20.476;2022-12-24T17:21:18;13.20;75.44
68867;SHT30;56451;44.804;20.476;2022-12-24T17:23:44;13.20;75.19
68867;SHT30;56451;44.804;20.476;2022-12-24T17:26:10;13.20;75.30
68867;SHT30;56451;44.804;20.476;2022-12-24T17:28:36;13.22;75.16
68867;SHT30;56451;44.804;20.476;2022-12-24T17:31:07;13.29;74.87
68867;SHT30;56451;44.804;20.476;2022-12-24T17:33:33;13.30;74.86